MKY weather

Mackay Airport
Mackay, Queensland, Australia

Public forecast

Using degrees Celsius for public forecast. Weather courtesy of forecast.io.

METAR (pilot weather report)

Retrieved 2018/08/15 05:00 UTC (53 minutes ago):

YBMK 150500Z AUTO 12014KT 9999 // NCD 23/14 Q1018

TAF (pilot weather forecast)

Forecast is more than 12 hours old.

Closest forecast is Hamilton Island Airport, 50.5 nm (93.5 km) NNW. Retrieved 2018/08/14 06:00 UTC (24 hours ago):

TAF YBHM 140502Z 1406/1418 13020KT 9999 SCT040